createdAt,value
2023-01-11T01:19:59.623Z,0.64
2023-01-11T01:20:59.576Z,0.64
2023-01-11T01:21:59.531Z,0.64
2023-01-11T01:22:59.486Z,0.65
2023-01-11T01:23:59.443Z,0.64
2023-01-11T01:24:59.413Z,0.64
2023-01-11T01:25:59.368Z,0.63
2023-01-11T01:26:59.340Z,0.63
2023-01-11T01:27:59.294Z,0.63
2023-01-11T01:28:59.263Z,0.64
2023-01-11T01:29:59.209Z,0.64
2023-01-11T01:30:59.212Z,0.65
2023-01-11T01:31:59.138Z,0.63
2023-01-11T01:32:59.089Z,0.64
2023-01-11T01:33:59.050Z,0.65
2023-01-11T01:34:59.008Z,0.65
2023-01-11T01:35:58.978Z,0.65
2023-01-11T01:36:58.924Z,0.64
2023-01-11T01:37:58.891Z,0.65
2023-01-11T01:38:58.847Z,0.64
2023-01-11T01:39:58.825Z,0.64
2023-01-11T01:40:58.780Z,0.64
2023-01-11T01:41:58.729Z,0.64
2023-01-11T01:42:58.701Z,0.63
2023-01-11T01:43:58.659Z,0.63
2023-01-11T01:44:58.592Z,0.64
2023-01-11T01:45:58.588Z,0.63
2023-01-11T01:46:58.503Z,0.63
2023-01-11T01:47:58.466Z,0.63
2023-01-11T01:48:58.421Z,0.62
2023-01-11T01:49:58.384Z,0.63
2023-01-11T01:50:58.329Z,0.63
2023-01-11T01:51:58.289Z,0.63
2023-01-11T01:52:58.259Z,0.63
2023-01-11T01:53:58.218Z,0.62
2023-01-11T01:54:58.171Z,0.64
2023-01-11T01:55:58.133Z,0.62
2023-01-11T01:56:58.089Z,0.62
2023-01-11T01:57:58.066Z,0.63
2023-01-11T01:58:58.015Z,0.63
2023-01-11T01:59:57.978Z,0.63
2023-01-11T02:00:57.936Z,0.63
2023-01-11T02:01:57.955Z,0.62
2023-01-11T02:02:57.883Z,0.64
2023-01-11T02:03:57.810Z,0.63
2023-01-11T02:04:57.767Z,0.63
2023-01-11T02:05:57.734Z,0.64
2023-01-11T02:06:57.736Z,0.62
2023-01-11T02:07:57.644Z,0.61
2023-01-11T02:08:57.607Z,0.63
2023-01-11T02:09:57.579Z,0.62
2023-01-11T02:10:57.528Z,0.61
2023-01-11T02:11:57.480Z,0.61
2023-01-11T02:12:57.445Z,0.63
2023-01-11T02:13:57.399Z,0.62
2023-01-11T02:14:57.342Z,0.63
2023-01-11T02:15:57.326Z,0.62
2023-01-11T02:16:57.254Z,0.61
2023-01-11T02:17:57.218Z,0.62
2023-01-11T02:18:57.166Z,0.62
2023-01-11T02:19:57.131Z,0.62
2023-01-11T02:20:57.068Z,0.62
2023-01-11T02:21:57.035Z,0.61
2023-01-11T02:22:56.979Z,0.62
2023-01-11T02:23:56.949Z,0.62
2023-01-11T02:24:56.899Z,0.63
2023-01-11T02:25:56.877Z,0.63
2023-01-11T02:26:56.820Z,0.61
2023-01-11T02:27:56.773Z,0.62
2023-01-11T02:28:56.723Z,0.61
2023-01-11T02:29:56.696Z,0.62
2023-01-11T02:30:56.675Z,0.62
2023-01-11T02:31:56.605Z,0.61
2023-01-11T02:32:56.566Z,0.62
2023-01-11T02:33:56.520Z,0.61
2023-01-11T02:34:56.478Z,0.62
2023-01-11T02:35:56.429Z,0.61
2023-01-11T02:36:56.382Z,0.62
2023-01-11T02:37:56.340Z,0.62
2023-01-11T02:38:56.290Z,0.62
2023-01-11T02:39:56.243Z,0.62
2023-01-11T02:40:56.199Z,0.62
2023-01-11T02:41:56.147Z,0.61
2023-01-11T02:42:56.096Z,0.60
2023-01-11T02:43:56.082Z,0.60
2023-01-11T02:44:56.015Z,0.61
2023-01-11T02:45:55.983Z,0.62
2023-01-11T02:46:55.935Z,0.61
2023-01-11T02:47:55.886Z,0.60
2023-01-11T02:48:55.848Z,0.60
2023-01-11T02:49:55.789Z,0.60
2023-01-11T02:50:55.752Z,0.61
2023-01-11T02:51:55.703Z,0.60
2023-01-11T02:52:55.670Z,0.61
2023-01-11T02:53:55.618Z,0.61
2023-01-11T02:54:55.592Z,0.61
2023-01-11T02:55:55.539Z,0.61
2023-01-11T02:56:55.494Z,0.60
2023-01-11T02:57:55.452Z,0.61
2023-01-11T02:58:55.405Z,0.60
2023-01-11T02:59:55.374Z,0.60
2023-01-11T03:00:55.327Z,0.59
2023-01-11T03:01:55.396Z,0.60
2023-01-11T03:02:55.269Z,0.60
2023-01-11T03:03:55.228Z,0.61
2023-01-11T05:17:49.778Z,0.55
2023-01-11T05:18:49.720Z,0.56
2023-01-11T05:19:49.673Z,0.56
2023-01-11T05:20:49.630Z,0.56
2023-01-11T05:21:49.593Z,0.56
2023-01-11T05:22:49.548Z,0.56
2023-01-11T05:23:49.490Z,0.56
2023-01-11T05:24:49.443Z,0.56
2023-01-11T05:25:49.403Z,0.56
2023-01-11T05:26:49.368Z,0.56
2023-01-11T05:27:49.321Z,0.55
2023-01-11T05:28:49.282Z,0.55
2023-01-11T05:29:49.233Z,0.54
2023-01-11T05:30:49.176Z,0.54
2023-01-11T05:31:49.201Z,0.57
2023-01-11T05:32:49.087Z,0.56
2023-01-11T05:33:49.054Z,0.55
2023-01-11T05:34:49.013Z,0.55
2023-01-11T05:35:48.969Z,0.55
2023-01-11T05:36:48.917Z,0.55
2023-01-11T05:37:48.880Z,0.55
2023-01-11T05:38:48.840Z,0.55
2023-01-11T05:39:48.812Z,0.56
2023-01-11T05:40:48.746Z,0.54
2023-01-11T05:41:48.706Z,0.55
2023-01-11T05:42:48.674Z,0.56
2023-01-11T05:43:48.628Z,0.55
2023-01-11T05:44:48.593Z,0.55
2023-01-11T05:45:48.556Z,0.55
2023-01-11T05:46:48.515Z,0.55
2023-01-11T05:47:48.472Z,0.55
2023-01-11T05:48:48.434Z,0.55
2023-01-11T05:49:48.387Z,0.55
2023-01-11T05:50:48.352Z,0.55
2023-01-11T05:51:48.309Z,0.55
2023-01-11T05:52:48.268Z,0.58
2023-01-11T05:53:48.226Z,0.56
2023-01-11T05:54:48.191Z,0.54
2023-01-11T05:55:48.145Z,0.54
2023-01-11T05:56:48.108Z,0.54
2023-01-11T05:57:48.048Z,0.54
2023-01-11T05:58:48.014Z,0.54
2023-01-11T05:59:47.977Z,0.53
2023-01-11T06:00:47.925Z,0.52
2023-01-11T06:01:47.940Z,0.54
2023-01-11T06:02:47.993Z,0.54
2023-01-11T06:03:47.817Z,0.54
2023-01-11T06:04:47.778Z,0.53
2023-01-11T06:05:47.739Z,0.51
2023-01-11T06:06:47.801Z,0.52
2023-01-11T06:07:47.686Z,0.54
2023-01-11T06:08:47.628Z,0.53
2023-01-11T06:09:47.589Z,0.54
2023-01-11T06:10:47.555Z,0.52
2023-01-11T06:11:47.525Z,0.52
2023-01-11T06:12:47.497Z,0.52
2023-01-11T06:13:47.463Z,0.53
2023-01-11T06:14:47.417Z,0.54
2023-01-11T06:15:47.379Z,0.52
2023-01-11T06:16:47.480Z,0.51
2023-01-11T06:17:47.309Z,0.51
2023-01-11T06:18:47.280Z,0.54
2023-01-11T06:19:47.243Z,0.54
2023-01-11T06:20:47.212Z,0.56
2023-01-11T06:21:47.183Z,0.53
2023-01-11T06:22:47.172Z,0.50
2023-01-11T06:23:47.110Z,0.50
2023-01-11T06:24:47.073Z,0.51
2023-01-11T06:25:47.041Z,0.52
2023-01-11T06:26:47.001Z,0.53
2023-01-11T06:27:46.985Z,0.51
2023-01-11T06:28:46.925Z,0.50
2023-01-11T06:29:46.899Z,0.52
2023-01-11T06:30:46.861Z,0.51
2023-01-11T06:31:46.828Z,0.55
2023-01-11T06:32:46.787Z,0.55
2023-01-11T06:33:47.018Z,0.54
2023-01-11T06:34:46.729Z,0.60
2023-01-11T06:35:46.693Z,0.60
2023-01-11T06:36:46.658Z,0.62
2023-01-11T06:37:46.612Z,0.62
2023-01-11T06:38:46.599Z,0.64
2023-01-11T06:39:46.548Z,0.67
2023-01-11T06:40:46.518Z,0.69
2023-01-11T06:41:46.465Z,0.74
2023-01-11T06:42:46.429Z,0.81
2023-01-11T06:43:46.395Z,0.86
2023-01-11T06:44:46.347Z,0.88
2023-01-11T06:45:46.331Z,0.93
2023-01-11T06:46:46.286Z,0.97
2023-01-11T06:47:46.236Z,1.04
2023-01-11T06:48:46.191Z,1.08
2023-01-11T07:01:45.634Z,1.70
2023-01-11T07:02:45.491Z,1.77
2023-01-11T07:03:45.469Z,1.85
2023-01-11T07:04:45.435Z,1.85
2023-01-11T07:05:45.322Z,1.93
2023-01-11T07:06:45.374Z,1.97
2023-01-11T07:07:45.212Z,1.94
2023-01-11T07:54:47.375Z,2.39
2023-01-11T08:57:38.669Z,1.56
2023-01-11T08:58:38.620Z,1.54
2023-01-11T08:59:38.544Z,1.50
2023-01-11T09:01:38.530Z,1.48
2023-01-11T09:02:38.401Z,1.65
2023-01-11T09:03:38.312Z,1.65
2023-01-11T09:04:38.248Z,1.65
2023-01-11T09:05:38.182Z,1.58
2023-01-11T09:06:38.131Z,1.46
2023-01-11T09:07:38.071Z,1.46
2023-01-11T09:08:38.043Z,1.66
2023-01-11T09:09:37.962Z,1.63
2023-01-11T09:10:37.908Z,1.61
2023-01-11T09:11:37.855Z,1.61
2023-01-11T09:12:37.803Z,1.51
2023-01-11T09:13:37.741Z,1.52
2023-01-11T09:14:37.691Z,1.67
2023-01-11T09:15:37.661Z,1.65
2023-01-11T09:16:37.585Z,1.69
2023-01-11T09:17:37.542Z,1.57
2023-01-11T09:18:37.496Z,1.52
2023-01-11T09:19:37.426Z,1.50
2023-01-11T09:20:37.361Z,1.59
2023-01-11T09:21:37.305Z,1.62
2023-01-11T09:22:37.253Z,1.70
2023-01-11T09:23:37.200Z,1.63
2023-01-11T09:24:37.158Z,1.54
2023-01-11T09:25:37.089Z,1.54
2023-01-11T09:26:37.061Z,1.61
2023-01-11T09:27:36.978Z,1.69
2023-01-11T09:28:36.920Z,1.69
2023-01-11T09:29:37.547Z,1.70
2023-01-11T09:30:36.881Z,1.67
2023-01-11T09:32:36.716Z,1.75
2023-01-11T09:33:36.651Z,1.70
2023-01-11T09:34:36.602Z,1.07
2023-01-11T09:35:36.543Z,0.76
2023-01-11T09:36:36.514Z,0.75
2023-01-11T09:37:36.469Z,0.83
2023-01-11T09:38:36.419Z,0.72
2023-01-11T09:39:36.395Z,0.50
2023-01-11T09:40:36.364Z,0.54
2023-01-11T09:41:36.354Z,0.51
2023-01-11T09:42:36.333Z,0.51
2023-01-11T09:43:36.299Z,0.49
2023-01-11T09:44:36.298Z,0.46
2023-01-11T09:45:36.288Z,0.50
2023-01-11T09:46:36.324Z,0.61
2023-01-11T09:47:36.274Z,0.74
2023-01-11T09:48:36.246Z,0.83
2023-01-11T09:49:36.230Z,0.75
2023-01-11T09:50:36.214Z,0.76
2023-01-11T09:51:36.213Z,0.69
2023-01-11T09:52:36.183Z,0.70
2023-01-11T09:53:36.136Z,0.73
2023-01-11T09:54:36.104Z,0.77
2023-01-11T09:55:36.080Z,0.78
2023-01-11T09:56:36.032Z,0.80
2023-01-11T09:57:36.001Z,0.74
2023-01-11T09:58:35.981Z,0.76
2023-01-11T09:59:35.928Z,0.77
2023-01-11T10:00:35.929Z,0.81
2023-01-11T10:01:35.930Z,0.84
2023-01-11T10:02:35.791Z,0.83
2023-01-11T10:03:35.754Z,0.78
2023-01-11T10:04:35.752Z,0.79
2023-01-11T10:05:35.684Z,0.82
2023-01-11T10:06:35.632Z,0.83
2023-01-11T10:07:35.609Z,0.84
2023-01-11T10:18:22.820Z,0.83
2023-01-11T10:18:30.455Z,0.83
2023-01-11T10:18:32.087Z,0.83
2023-01-11T10:18:41.543Z,0.83
2023-01-11T10:18:57.970Z,0.83
2023-01-11T10:19:40.749Z,0.83
2023-01-11T10:20:36.150Z,0.83
2023-01-11T13:38:25.386Z,1.79
2023-01-11T13:39:25.391Z,1.73
2023-01-11T13:40:25.295Z,1.79
2023-01-11T13:41:25.228Z,1.77
2023-01-11T15:59:17.604Z,1.46
2023-01-11T16:00:17.569Z,1.51
2023-01-11T16:01:17.550Z,1.50
2023-01-11T16:02:17.473Z,1.40
2023-01-11T16:03:17.464Z,1.38
2023-01-11T16:04:17.483Z,1.33
2023-01-11T16:05:17.366Z,1.35
2023-01-11T16:06:17.315Z,1.41
2023-01-11T16:07:17.264Z,1.35
2023-01-11T16:08:17.241Z,1.33
2023-01-11T16:09:17.184Z,1.31
2023-01-11T16:10:17.138Z,1.25
2023-01-11T16:11:17.115Z,1.28
2023-01-11T16:12:17.039Z,1.30
2023-01-11T16:13:17.005Z,1.22
2023-01-11T16:14:16.964Z,1.23
2023-01-11T16:15:16.940Z,1.19
2023-01-11T16:16:16.936Z,1.18
2023-01-11T16:17:16.824Z,1.24
2023-01-11T16:18:16.801Z,1.21
2023-01-11T16:19:16.751Z,1.16
2023-01-11T16:20:16.713Z,1.15
2023-01-11T16:21:16.682Z,1.11
2023-01-11T16:22:16.629Z,1.12
2023-01-11T16:23:16.590Z,1.17
2023-01-11T16:24:16.539Z,1.13
2023-01-11T16:25:16.499Z,1.10
2023-01-11T16:26:16.492Z,1.08
2023-01-11T16:27:16.505Z,1.07
2023-01-11T16:28:16.383Z,1.09
2023-01-11T16:29:16.341Z,1.10
2023-01-11T16:30:16.306Z,1.06
2023-01-11T16:31:16.289Z,1.02
2023-01-11T16:32:16.228Z,1.02
2023-01-11T16:33:16.188Z,1.03
2023-01-11T16:34:16.160Z,1.05
2023-01-11T16:35:16.133Z,1.06
2023-01-11T16:36:16.082Z,1.01
2023-01-11T16:37:16.046Z,1.01
2023-01-11T16:38:16.005Z,0.97
2023-01-11T16:39:15.967Z,0.98
2023-01-11T16:40:15.926Z,1.01
2023-01-11T16:41:15.913Z,1.00
2023-01-11T16:42:15.874Z,1.00
2023-01-11T16:43:15.822Z,0.97
2023-01-11T16:44:15.797Z,0.94
2023-01-11T16:45:15.758Z,1.00
2023-01-11T16:46:15.735Z,0.99
2023-01-11T16:47:15.714Z,0.98
2023-01-11T16:48:15.663Z,0.94
2023-01-11T16:49:15.626Z,0.93
2023-01-11T16:50:15.582Z,0.91
2023-01-11T16:51:15.545Z,0.93
2023-01-11T16:52:15.516Z,0.94
2023-01-11T16:53:15.470Z,0.92
2023-01-11T16:54:15.473Z,0.90
2023-01-11T16:55:15.393Z,0.89
2023-01-11T16:56:15.353Z,0.90
2023-01-11T16:57:16.493Z,0.91
2023-01-11T16:58:15.276Z,0.91
2023-01-11T16:59:15.253Z,0.90
2023-01-11T17:00:15.213Z,0.88
2023-01-11T17:01:15.248Z,0.87
2023-01-11T17:05:15.037Z,0.86
2023-01-11T17:10:14.875Z,0.86
2023-01-11T17:26:14.829Z,0.82
2023-01-11T17:27:14.323Z,0.82
2023-01-11T17:28:14.273Z,0.80
2023-01-11T17:29:14.225Z,0.81
2023-01-11T17:30:14.186Z,0.80
2023-01-11T17:31:14.152Z,0.81
2023-01-11T17:32:14.117Z,0.81
2023-01-11T17:33:14.083Z,0.80
2023-01-11T17:34:14.042Z,0.78
2023-01-11T17:35:14.014Z,0.79
2023-01-11T17:36:14.001Z,0.80
2023-01-11T17:37:13.951Z,0.80
2023-01-11T17:38:13.913Z,0.78
2023-01-11T17:39:13.879Z,0.76
2023-01-11T17:40:13.842Z,0.77
2023-01-11T17:41:13.841Z,0.76
2023-01-11T17:42:13.765Z,0.77
2023-01-11T17:43:13.733Z,0.78
2023-01-11T17:44:13.688Z,0.76
2023-01-11T17:45:13.655Z,0.75
2023-01-11T17:46:13.655Z,0.76
2023-01-11T17:47:13.590Z,0.76
2023-01-11T17:48:13.557Z,0.76
2023-01-11T17:49:13.522Z,0.74
2023-01-11T17:50:14.786Z,0.73
2023-01-11T17:51:13.449Z,0.74
2023-01-11T17:52:13.405Z,0.73
2023-01-11T17:53:13.375Z,0.73
2023-01-11T17:54:13.347Z,0.75
2023-01-11T17:55:13.326Z,0.73
2023-01-11T17:56:13.270Z,0.71
2023-01-11T17:57:13.240Z,0.73
2023-01-11T17:58:13.233Z,0.73
2023-01-11T17:59:13.192Z,0.73
2023-01-11T18:00:13.143Z,0.72
2023-01-11T18:01:13.128Z,0.72
2023-01-11T18:02:13.127Z,0.71
2023-01-11T18:03:13.045Z,0.74
2023-01-11T18:04:13.008Z,0.73
2023-01-11T18:05:12.968Z,0.72
2023-01-11T18:06:12.940Z,0.72
2023-01-11T18:07:12.904Z,0.70
2023-01-11T18:08:12.863Z,0.70
2023-01-11T18:09:12.846Z,0.70
2023-01-11T18:10:12.800Z,0.70
2023-01-11T18:11:12.761Z,0.70
2023-01-11T18:12:12.726Z,0.70
2023-01-11T18:13:12.703Z,0.69
2023-01-11T18:14:12.674Z,0.69
2023-01-11T18:15:12.640Z,0.68
2023-01-11T18:16:12.611Z,0.71
2023-01-11T18:17:12.551Z,0.70
2023-01-11T18:18:12.516Z,0.69
2023-01-11T18:19:12.478Z,0.68
2023-01-11T18:20:12.446Z,0.69
2023-01-11T18:21:12.409Z,0.69
2023-01-11T18:22:12.364Z,0.68
2023-01-11T18:23:12.331Z,0.67
2023-01-11T18:24:12.305Z,0.67
2023-01-11T18:25:12.255Z,0.67
2023-01-11T18:26:12.223Z,0.68
2023-01-11T18:27:12.247Z,0.68
2023-01-11T18:28:12.214Z,0.67
2023-01-11T18:29:12.143Z,0.66
2023-01-11T18:30:12.081Z,0.67
2023-01-11T18:31:12.086Z,0.67
2023-01-11T18:32:12.024Z,0.66
2023-01-11T18:33:11.986Z,0.67
2023-01-11T18:34:11.946Z,0.66
2023-01-11T18:35:11.909Z,0.66
2023-01-11T18:36:11.864Z,0.66
2023-01-11T18:37:11.833Z,0.67
2023-01-11T18:38:11.797Z,0.67
2023-01-11T18:39:11.769Z,0.66
2023-01-11T18:40:11.725Z,0.65
2023-01-11T18:41:11.692Z,0.64
2023-01-11T18:42:11.655Z,0.65
2023-01-11T18:43:11.796Z,0.67
2023-01-11T18:44:11.590Z,0.67
2023-01-11T18:45:11.556Z,0.66
2023-01-11T18:46:11.586Z,0.64
2023-01-11T18:47:11.474Z,0.66
2023-01-11T18:48:11.438Z,0.64
2023-01-11T18:49:11.395Z,0.64
2023-01-11T18:50:11.367Z,0.65
2023-01-11T18:51:11.313Z,0.64
2023-01-11T18:52:11.280Z,0.63
2023-01-11T18:53:11.253Z,0.64
2023-01-11T18:54:11.205Z,0.64
2023-01-11T18:55:11.172Z,0.65
2023-01-11T18:56:11.130Z,0.63
2023-01-11T18:57:11.103Z,0.62
2023-01-11T18:58:11.067Z,0.62
2023-01-11T18:59:11.023Z,0.63
2023-01-11T19:00:10.991Z,0.64
2023-01-11T19:01:10.997Z,0.64
2023-01-11T19:02:16.907Z,0.62
2023-01-11T19:03:11.873Z,0.62
2023-01-11T19:04:10.835Z,0.62
2023-01-11T19:05:10.807Z,0.62
2023-01-11T19:06:10.760Z,0.63
2023-01-11T19:07:10.725Z,0.63
2023-01-11T19:08:10.678Z,0.61
2023-01-11T19:09:10.647Z,0.61
2023-01-11T19:10:10.617Z,0.62
2023-01-11T19:11:10.572Z,0.63
2023-01-11T19:12:10.522Z,0.62
2023-01-11T19:13:10.491Z,0.61
2023-01-11T19:14:10.446Z,0.60
2023-01-11T19:15:10.416Z,0.61
2023-01-11T19:16:10.599Z,0.62
2023-01-11T19:17:10.330Z,0.62
2023-01-11T19:18:10.295Z,0.61
2023-01-11T19:19:10.262Z,0.60
2023-01-11T19:20:10.230Z,0.59
2023-01-11T19:21:10.188Z,0.61
2023-01-11T19:22:10.147Z,0.61
2023-01-11T19:23:10.107Z,0.61
2023-01-11T19:24:10.063Z,0.60
2023-01-11T19:25:10.031Z,0.59
2023-01-11T19:26:09.994Z,0.60
2023-01-11T19:27:10.023Z,0.59
2023-01-11T19:28:09.922Z,0.60
2023-01-11T19:29:09.871Z,0.60
2023-01-11T19:30:09.827Z,0.60
2023-01-11T19:31:09.927Z,0.58
2023-01-11T19:32:09.751Z,0.59
2023-01-11T19:33:09.730Z,0.59
2023-01-11T19:34:09.685Z,0.59
2023-01-11T19:35:09.640Z,0.59
2023-01-11T19:36:09.600Z,0.59
2023-01-11T19:37:09.565Z,0.59
2023-01-11T19:38:09.531Z,0.59
2023-01-11T19:39:09.509Z,0.59
2023-01-11T19:40:09.455Z,0.59
2023-01-11T19:41:09.471Z,0.57
2023-01-11T19:42:09.386Z,0.57
2023-01-11T19:43:09.349Z,0.58
2023-01-11T19:44:09.324Z,0.59
2023-01-11T19:45:09.280Z,0.59
2023-01-11T19:46:11.513Z,0.59
2023-01-11T19:47:12.095Z,0.59
2023-01-11T19:48:09.163Z,0.58
2023-01-11T19:49:09.138Z,0.58
2023-01-11T19:50:09.103Z,0.58
2023-01-11T19:51:09.064Z,0.59
2023-01-11T19:52:09.014Z,0.59
2023-01-11T19:53:08.983Z,0.58
2023-01-11T19:54:08.944Z,0.57
2023-01-11T19:55:08.916Z,0.57
2023-01-11T19:56:08.883Z,0.59
2023-01-11T19:57:08.855Z,0.58
2023-01-11T19:58:08.816Z,0.56
2023-01-11T19:59:08.786Z,0.56
2023-01-11T20:00:08.760Z,0.57
2023-01-11T20:01:08.795Z,0.57
2023-01-11T20:02:08.688Z,0.58
2023-01-11T20:03:08.655Z,0.56
2023-01-11T20:04:08.603Z,0.56
2023-01-11T20:05:08.600Z,0.56
2023-01-11T20:06:08.553Z,0.57
2023-01-11T20:07:08.501Z,0.57
2023-01-11T20:08:08.458Z,0.58
2023-01-11T20:09:08.427Z,0.57
2023-01-11T20:10:08.388Z,0.57
2023-01-11T20:11:08.368Z,0.56
2023-01-11T20:12:08.362Z,0.55
2023-01-11T20:13:08.296Z,0.56
2023-01-11T20:14:08.259Z,0.56
2023-01-11T20:15:08.229Z,0.55
2023-01-11T20:16:08.243Z,0.56
2023-01-11T20:17:08.197Z,0.56
2023-01-11T20:18:08.131Z,0.55
2023-01-11T20:19:08.098Z,0.56
2023-01-11T20:20:08.063Z,0.55
2023-01-11T20:21:08.039Z,0.55
2023-01-11T20:22:07.999Z,0.55
2023-01-11T20:23:07.963Z,0.56
2023-01-11T20:24:07.927Z,0.56
2023-01-11T20:25:07.903Z,0.56
2023-01-11T20:26:07.891Z,0.55
2023-01-11T20:27:07.898Z,0.55
2023-01-11T20:28:07.793Z,0.56
2023-01-11T20:29:07.753Z,0.56
2023-01-11T20:30:07.720Z,0.56
2023-01-11T20:31:07.698Z,0.55
2023-01-11T20:32:31.019Z,0.54
2023-01-11T20:33:08.615Z,0.54
2023-01-11T20:34:07.569Z,0.54
2023-01-11T20:35:07.548Z,0.55
2023-01-11T20:36:07.496Z,0.55
2023-01-11T20:37:07.478Z,0.55
2023-01-11T20:38:07.437Z,0.55
2023-01-11T20:39:07.406Z,0.55
2023-01-11T20:40:07.378Z,0.56
2023-01-11T20:41:07.337Z,0.55
2023-01-11T20:42:07.308Z,0.54
2023-01-11T20:43:07.277Z,0.55
2023-01-11T20:44:07.245Z,0.54
2023-01-11T20:45:07.213Z,0.55
2023-01-11T20:46:07.217Z,0.56
2023-01-11T20:47:07.157Z,0.56
2023-01-11T20:48:07.126Z,0.54
2023-01-11T20:49:07.091Z,0.55
2023-01-11T20:50:07.068Z,0.55
2023-01-11T20:51:07.044Z,0.56
2023-01-11T20:52:07.006Z,0.55
2023-01-11T20:53:06.963Z,0.55
2023-01-11T20:54:06.956Z,0.54
2023-01-11T20:55:06.905Z,0.54
2023-01-11T20:56:06.876Z,0.55
2023-01-11T20:57:06.851Z,0.55
2023-01-11T20:58:06.807Z,0.55
2023-01-11T20:59:06.783Z,0.54
2023-01-11T21:00:06.735Z,0.54
2023-01-11T21:01:06.712Z,0.55
2023-01-11T21:02:06.676Z,0.55
2023-01-11T21:03:06.672Z,0.55
2023-01-11T21:04:06.629Z,0.54
2023-01-11T21:05:06.592Z,0.53
2023-01-11T21:06:06.550Z,0.55
2023-01-11T21:07:06.529Z,0.55
2023-01-11T21:08:06.495Z,0.55
2023-01-11T21:09:06.487Z,0.55
2023-01-11T21:10:06.440Z,0.54
2023-01-11T21:11:06.404Z,0.53
2023-01-11T21:12:08.213Z,0.55
2023-01-11T21:13:06.343Z,0.56
2023-01-11T21:14:06.302Z,0.55
2023-01-11T23:59:01.001Z,0.53
